This is the latest recevied weather packets stored in our database for station/object NO9B. If no packets are shown the sender has not sent any weather packets the latest 1 day(s).
| Time | Temp. | Humidity | Pressure | Rain* | Wind** | Luminosity | Snow |
|---|---|---|---|---|---|---|---|
| 1778014255 | 14.44° C | 28% | 1008.8 hPa | 0 mm | 1.79 m/s, 239° | 179 W/m² | - |
| 1778013952 | 14.44° C | 28% | 1009.1 hPa | 0 mm | 1.34 m/s, 252° | 276 W/m² | - |
| 1778013650 | 14.44° C | 32% | 1009 hPa | 0 mm | 1.34 m/s, 339° | 208 W/m² | - |
| 1778013346 | 15° C | 28% | 1009 hPa | 0 mm | 2.68 m/s, 223° | 164 W/m² | - |
| 1778013043 | 14.44° C | 30% | 1009 hPa | 0 mm | 0.89 m/s, 280° | 326 W/m² | - |
| 1778012739 | 13.89° C | 30% | 1009.2 hPa | 0 mm | 1.34 m/s, 330° | 306 W/m² | - |
| 1778012435 | 14.44° C | 29% | 1009.3 hPa | 0 mm | 1.34 m/s, 245° | 235 W/m² | - |
| 1778012132 | 14.44° C | 29% | 1009.1 hPa | 0 mm | 0.89 m/s, 296° | 360 W/m² | - |
| 1778011830 | 15° C | 28% | 1009.2 hPa | 0 mm | 1.79 m/s, 235° | 277 W/m² | - |
| 1778011528 | 14.44° C | 33% | 1009.1 hPa | 0 mm | 0.89 m/s, 271° | 443 W/m² | - |
| 1778011224 | 13.89° C | 29% | 1009.4 hPa | 0 mm | 1.79 m/s, 315° | 308 W/m² | - |
| 1778010920 | 13.89° C | 30% | 1009.2 hPa | 0 mm | 4.02 m/s, 214° | 281 W/m² | - |
| 1778010618 | 13.89° C | 29% | 1009.4 hPa | 0 mm | 4.92 m/s, 211° | 496 W/m² | - |
| 1778010315 | 13.89° C | 29% | 1009.3 hPa | 0 mm | 2.68 m/s, 227° | 452 W/m² | - |
| 1778010010 | 13.89° C | 31% | 1009.4 hPa | 0 mm | 1.34 m/s, 259° | 277 W/m² | - |
| 1778009708 | 13.33° C | 30% | 1009.7 hPa | 0 mm | 0.89 m/s, 290° | 243 W/m² | - |
| 1778009405 | 13.33° C | 32% | 1009.3 hPa | 0 mm | 2.68 m/s, 244° | 333 W/m² | - |
| 1778009103 | 13.33° C | 31% | 1009.7 hPa | 0 mm | 2.24 m/s, 282° | 314 W/m² | - |
| 1778008800 | 13.33° C | 32% | 1009.3 hPa | 0 mm | 1.79 m/s, 226° | 283 W/m² | - |
| 1778008499 | 13.33° C | 32% | 1009.5 hPa | 0 mm | 2.24 m/s, 214° | 303 W/m² | - |
| 1778008196 | 13.33° C | 33% | 1009.5 hPa | 0 mm | 1.34 m/s, 230° | 300 W/m² | - |
| 1778007890 | 13.33° C | 34% | 1009.3 hPa | 0 mm | 3.58 m/s, 200° | 366 W/m² | - |
| 1778007586 | 12.78° C | 34% | 1009.3 hPa | 0 mm | 0.89 m/s, 268° | 396 W/m² | - |
| 1778007284 | 12.78° C | 34% | 1009.5 hPa | 0 mm | 1.79 m/s, 287° | 390 W/m² | - |
| 1778006980 | 12.78° C | 34% | 1009.4 hPa | 0 mm | 1.79 m/s, 292° | 294 W/m² | - |
* Rain latest hour (hover to see other rain measurements)
** Current wind speed in m/s (hover to see current wind gust speed)